Time;durP1;ratioP1;P1;durP2;ratioP2;P2;SDS_P1;SDS_P2;PMS_P1;PMS_P2;Temp;Humidity;BMP_temperature;BMP_pressure;BME280_temperature;BME280_humidity;BME280_pressure;Samples;Min_cycle;Max_cycle;Signal;HPM_P1;HPM_P2
2022/05/13 00:00:53;;;;;;;;;;;;;;;15.61;79.30;98304.71;1695865;84;21444;-84
2022/05/13 00:03:19;;;;;;;;;;;;;;;15.45;79.52;98299.98;1695738;84;20868;-84
2022/05/13 00:05:45;;;;;;;;;;;;;;;15.30;79.94;98294.80;1693984;84;56379;-85
2022/05/13 00:08:11;;;;;;;;;;;;;;;15.28;80.54;98299.38;1688598;84;25961;-85
2022/05/13 00:10:38;;;;;;;;;;;;;;;15.33;81.16;98304.22;1692553;83;217978;-84
2022/05/13 00:13:04;;;;;;;;;;;;;;;15.30;81.59;98296.13;1701973;84;83885;-84
2022/05/13 00:15:30;;;;;;;;;;;;;;;15.26;82.01;98298.70;1700949;84;33941;-84
2022/05/13 00:17:56;;;;;;;;;;;;;;;15.36;82.66;98297.38;1692100;84;36441;-87
2022/05/13 00:20:23;;;;;;;;;;;;;;;15.45;83.15;98293.39;1707691;84;26039;-87
2022/05/13 00:22:55;;;;;;;;;;;;;;;15.54;83.50;98283.02;1699872;84;25160;-88
2022/05/13 00:25:23;;;;;;;;;;;;;;;15.58;83.85;98286.55;1699448;84;20170;-87
2022/05/13 00:27:49;;;;;;;;;;;;;;;15.57;84.11;98291.47;1700497;84;25156;-87
2022/05/13 00:33:04;;;;;;;;;;;;;;;15.43;84.45;98294.05;1669027;85;26067;-84
2022/05/13 00:35:30;;;;;;;;;;;;;;;15.37;84.80;98276.14;1661795;86;24505;-84
2022/05/13 00:37:56;;;;;;;;;;;;;;;15.31;85.22;98275.38;1651096;86;20607;-84
2022/05/13 00:40:22;;;;;;;;;;;;;;;15.26;85.48;98271.50;1654040;86;20233;-84
2022/05/13 00:42:49;;;;;;;;;;;;;;;15.22;85.75;98271.45;1657851;86;21943;-84
2022/05/13 00:45:15;;;;;;;;;;;;;;;15.31;86.20;98268.79;1657708;85;26068;-84
2022/05/13 00:47:42;;;;;;;;;;;;;;;15.44;86.64;98263.20;1653881;85;24446;-84
2022/05/13 00:50:09;;;;;;;;;;;;;;;15.37;86.73;98275.31;1650592;85;20539;-84
2022/05/13 00:52:36;;;;;;;;;;;;;;;15.23;86.84;98278.36;1655729;86;25299;-84
2022/05/13 00:55:03;;;;;;;;;;;;;;;15.18;87.08;98275.31;1660719;85;21445;-84
2022/05/13 00:57:30;;;;;;;;;;;;;;;15.27;87.52;98270.05;1655288;85;26000;-85
2022/05/13 01:00:01;;;;;;;;;;;;;;;15.18;87.80;98274.83;1651676;86;24658;-85
2022/05/13 01:02:27;;;;;;;;;;;;;;;15.01;88.01;98268.93;1653325;86;20343;-85
2022/05/13 01:04:57;;;;;;;;;;;;;;;14.89;88.35;98269.55;1649690;86;20690;-85
2022/05/13 01:07:32;;;;;;;;;;;;;;;14.86;88.76;98265.89;1652412;86;22035;-85
2022/05/13 01:10:00;;;;;;;;;;;;;;;14.81;89.10;98268.59;1655986;86;26188;-84
2022/05/13 01:12:29;;;;;;;;;;;;;;;14.76;89.42;98267.69;1658514;86;24562;-85
2022/05/13 01:14:57;;;;;;;;;;;;;;;14.75;89.92;98254.16;1657913;85;20216;-85
2022/05/13 01:20:14;;;;;;;;;;;;;;;14.70;90.88;98243.20;1656360;86;22101;-84
2022/05/13 01:22:58;;;;;;;;;;;;;;;14.81;91.43;98249.66;1648328;85;26795;-85
2022/05/13 01:25:25;;;;;;;;;;;;;;;14.84;91.78;98253.33;1655619;86;24501;-85
2022/05/13 01:27:53;;;;;;;;;;;;;;;14.95;92.24;98245.77;1652594;86;20222;-87
2022/05/13 01:30:23;;;;;;;;;;;;;;;14.86;92.37;98244.80;1662224;84;24549;-88
2022/05/13 01:32:50;;;;;;;;;;;;;;;14.77;92.52;98240.37;1667685;85;22063;-87
2022/05/13 01:35:17;;;;;;;;;;;;;;;14.71;92.85;98236.14;1670235;85;26061;-84
2022/05/13 01:37:43;;;;;;;;;;;;;;;14.62;93.21;98225.92;1673084;85;24534;-84
2022/05/13 01:40:10;;;;;;;;;;;;;;;14.56;93.59;98240.98;1671287;85;20455;-84
2022/05/13 01:42:35;;;;;;;;;;;;;;;14.56;93.93;98254.16;1674695;85;24600;-87
2022/05/13 01:45:02;;;;;;;;;;;;;;;14.51;94.25;98245.83;1672630;85;20973;-87
2022/05/13 01:47:29;;;;;;;;;;;;;;;14.48;94.67;98237.70;1676343;85;25965;-87
2022/05/13 01:49:55;;;;;;;;;;;;;;;14.42;95.02;98250.09;1668730;85;24328;-88
2022/05/13 01:52:21;;;;;;;;;;;;;;;14.45;95.36;98254.27;1671459;85;20227;-87
2022/05/13 01:54:53;;;;;;;;;;;;;;;14.50;95.73;98245.00;1674940;85;25208;-87
2022/05/13 01:57:20;;;;;;;;;;;;;;;14.53;96.00;98242.08;1675193;85;21956;-87
2022/05/13 01:59:45;;;;;;;;;;;;;;;14.67;96.44;98244.81;1673198;84;21004;-87
2022/05/13 02:02:12;;;;;;;;;;;;;;;14.82;96.71;98243.42;1673315;85;20311;-84
2022/05/13 02:04:38;;;;;;;;;;;;;;;14.90;96.92;98243.55;1673784;85;20281;-84
2022/05/13 02:07:04;;;;;;;;;;;;;;;14.93;97.12;98243.77;1673533;85;20244;-84
2022/05/13 02:09:30;;;;;;;;;;;;;;;14.92;97.20;98246.05;1671351;85;22056;-84
2022/05/13 02:11:56;;;;;;;;;;;;;;;14.82;97.12;98259.23;1667990;85;25989;-84
2022/05/13 02:14:28;;;;;;;;;;;;;;;14.78;97.17;98257.86;1670016;85;20237;-83
2022/05/13 02:16:54;;;;;;;;;;;;;;;14.70;97.25;98256.37;1670515;85;20178;-87
2022/05/13 02:19:22;;;;;;;;;;;;;;;14.65;97.39;98258.11;1673231;85;24553;-87
2022/05/13 02:21:48;;;;;;;;;;;;;;;14.64;97.59;98256.92;1671955;85;21993;-84
2022/05/13 02:24:14;;;;;;;;;;;;;;;14.68;97.84;98262.25;1671622;85;26065;-84
2022/05/13 02:26:40;;;;;;;;;;;;;;;14.67;98.00;98265.88;1672267;85;20325;-84
2022/05/13 02:29:06;;;;;;;;;;;;;;;14.54;98.02;98250.81;1670786;85;20212;-84
2022/05/13 02:31:32;;;;;;;;;;;;;;;14.42;98.15;98255.84;1668285;85;20203;-84
2022/05/13 02:33:59;;;;;;;;;;;;;;;14.31;98.40;98248.86;1665827;85;21944;-83
2022/05/13 02:36:30;;;;;;;;;;;;;;;14.23;98.72;98252.66;1667776;85;26021;-83
2022/05/13 02:38:53;;;;;;;;;;;;;;;14.19;99.04;98259.14;1665342;85;24523;-84
2022/05/13 02:41:20;;;;;;;;;;;;;;;14.17;99.35;98254.03;1672496;85;20514;-84
2022/05/13 02:43:48;;;;;;;;;;;;;;;14.25;99.78;98256.81;1670948;85;24644;-85
2022/05/13 02:46:16;;;;;;;;;;;;;;;14.40;100.00;98258.59;1669322;85;22593;-84
2022/05/13 02:48:43;;;;;;;;;;;;;;;14.47;100.00;98263.69;1666613;85;26125;-86
2022/05/13 02:51:09;;;;;;;;;;;;;;;14.47;100.00;98265.48;1665684;85;20234;-84
2022/05/13 02:53:47;;;;;;;;;;;;;;;14.49;100.00;98258.29;1663305;85;20339;-84
2022/05/13 02:56:13;;;;;;;;;;;;;;;14.53;100.00;98259.19;1670874;85;24516;-83
2022/05/13 02:58:40;;;;;;;;;;;;;;;14.55;100.00;98252.48;1667296;85;22065;-84
2022/05/13 03:01:06;;;;;;;;;;;;;;;14.58;100.00;98248.25;1670968;85;25994;-84
2022/05/13 03:03:34;;;;;;;;;;;;;;;14.54;100.00;98243.75;1664972;85;24432;-84
2022/05/13 03:06:00;;;;;;;;;;;;;;;14.55;100.00;98233.56;1666153;85;20520;-84
2022/05/13 03:08:26;;;;;;;;;;;;;;;14.57;100.00;98234.72;1664984;85;20246;-84
2022/05/13 03:10:52;;;;;;;;;;;;;;;14.59;100.00;98236.75;1658499;85;22296;-84
2022/05/13 03:13:19;;;;;;;;;;;;;;;14.64;100.00;98241.95;1666865;85;26003;-84
2022/05/13 03:15:46;;;;;;;;;;;;;;;14.65;100.00;98243.62;1670538;85;24493;-84
2022/05/13 03:18:14;;;;;;;;;;;;;;;14.60;100.00;98248.47;1667115;85;20174;-84
2022/05/13 03:20:40;;;;;;;;;;;;;;;14.53;100.00;98251.77;1663696;85;24594;-83
2022/05/13 03:23:06;;;;;;;;;;;;;;;14.51;100.00;98247.15;1669573;85;20788;-83
2022/05/13 03:25:32;;;;;;;;;;;;;;;14.51;100.00;98244.52;1665694;85;26156;-82
2022/05/13 03:27:59;;;;;;;;;;;;;;;14.55;100.00;98248.05;1663268;85;24536;-83
2022/05/13 03:30:25;;;;;;;;;;;;;;;14.57;100.00;98246.58;1670426;85;20237;-84
2022/05/13 03:32:52;;;;;;;;;;;;;;;14.61;100.00;98244.88;1668834;83;24504;-84
2022/05/13 03:35:19;;;;;;;;;;;;;;;14.62;100.00;98250.95;1666739;85;22034;-83
2022/05/13 03:37:45;;;;;;;;;;;;;;;14.56;100.00;98254.95;1674764;85;25502;-82
2022/05/13 03:40:12;;;;;;;;;;;;;;;14.49;100.00;98259.61;1668783;85;24501;-82
2022/05/13 03:42:38;;;;;;;;;;;;;;;14.44;100.00;98256.55;1672582;85;20359;-82
2022/05/13 03:45:05;;;;;;;;;;;;;;;14.43;100.00;98264.09;1663691;85;20293;-86
2022/05/13 03:47:37;;;;;;;;;;;;;;;14.45;100.00;98272.70;1672307;84;22544;-87
2022/05/13 03:50:04;;;;;;;;;;;;;;;14.45;100.00;98276.17;1668513;85;26776;-83
2022/05/13 03:52:30;;;;;;;;;;;;;;;14.46;100.00;98275.17;1669336;85;25150;-83
2022/05/13 03:54:57;;;;;;;;;;;;;;;14.52;100.00;98265.42;1663220;85;20218;-83
2022/05/13 03:57:24;;;;;;;;;;;;;;;14.56;100.00;98259.42;1663836;85;24520;-83
2022/05/13 03:59:50;;;;;;;;;;;;;;;14.65;100.00;98269.13;1667659;85;22261;-82
2022/05/13 04:02:16;;;;;;;;;;;;;;;14.73;100.00;98269.26;1671071;85;21133;-83
2022/05/13 04:10:11;;;;;;;;;;;;;;;14.85;100.00;98269.97;1674237;85;24566;-86
2022/05/13 04:18:07;;;;;;;;;;;;;;;14.98;100.00;98277.13;1670755;85;24504;-87
2022/05/13 04:20:34;;;;;;;;;;;;;;;14.94;100.00;98284.97;1668808;85;20187;-87
2022/05/13 04:23:05;;;;;;;;;;;;;;;14.90;100.00;98288.83;1665157;85;20196;-86
2022/05/13 04:25:31;;;;;;;;;;;;;;;14.88;100.00;98289.47;1672427;84;21970;-86
2022/05/13 04:27:56;;;;;;;;;;;;;;;14.87;100.00;98293.91;1664949;85;21055;-87
2022/05/13 04:30:22;;;;;;;;;;;;;;;14.93;100.00;98287.25;1667280;85;20270;-83
2022/05/13 04:32:48;;;;;;;;;;;;;;;15.00;100.00;98291.02;1668748;84;20380;-83
2022/05/13 04:35:15;;;;;;;;;;;;;;;15.07;100.00;98293.42;1661031;85;24549;-83
2022/05/13 04:37:41;;;;;;;;;;;;;;;15.15;100.00;98301.48;1663735;84;22011;-83
2022/05/13 04:40:08;;;;;;;;;;;;;;;15.22;100.00;98303.08;1663560;85;20987;-83
2022/05/13 04:42:52;;;;;;;;;;;;;;;15.27;100.00;98304.33;1665246;85;25679;-83
2022/05/13 04:45:24;;;;;;;;;;;;;;;15.38;100.00;98300.71;1666721;85;20215;-83
2022/05/13 04:50:31;;;;;;;;;;;;;;;15.45;100.00;98296.52;1662713;85;22155;-83
2022/05/13 04:52:57;;;;;;;;;;;;;;;15.39;100.00;98305.82;1665217;85;21056;-83
2022/05/13 04:55:24;;;;;;;;;;;;;;;15.41;100.00;98296.45;1665449;85;20291;-83
2022/05/13 04:57:52;;;;;;;;;;;;;;;15.57;100.00;98301.19;1659467;85;20223;-83
2022/05/13 05:00:17;;;;;;;;;;;;;;;15.65;100.00;98292.09;1667483;85;24659;-84
2022/05/13 05:02:43;;;;;;;;;;;;;;;15.72;100.00;98286.08;1665180;85;20902;-84
2022/05/13 05:05:09;;;;;;;;;;;;;;;15.82;100.00;98285.56;1666233;85;21031;-83
2022/05/13 05:07:35;;;;;;;;;;;;;;;15.86;100.00;98282.17;1662599;85;20254;-83
2022/05/13 05:10:01;;;;;;;;;;;;;;;16.03;100.00;98288.02;1664891;85;20192;-83
2022/05/13 05:12:27;;;;;;;;;;;;;;;16.21;100.00;98282.30;1667959;85;20209;-87
2022/05/13 05:14:53;;;;;;;;;;;;;;;16.31;100.00;98287.03;1659309;85;22691;-86
2022/05/13 05:17:19;;;;;;;;;;;;;;;16.37;100.00;98290.06;1663340;85;20983;-86
2022/05/13 05:19:45;;;;;;;;;;;;;;;16.45;100.00;98282.25;1671075;85;24498;-86
2022/05/13 05:22:11;;;;;;;;;;;;;;;16.49;100.00;98285.77;1659556;85;20296;-86
2022/05/13 05:24:37;;;;;;;;;;;;;;;16.53;100.00;98291.09;1660781;85;20292;-86
2022/05/13 05:27:05;;;;;;;;;;;;;;;16.59;100.00;98293.66;1660481;85;20221;-86
2022/05/13 05:29:31;;;;;;;;;;;;;;;16.66;100.00;98298.22;1666519;85;27082;-87
2022/05/13 05:31:56;;;;;;;;;;;;;;;16.76;100.00;98290.71;1663886;85;20233;-86
2022/05/13 05:34:22;;;;;;;;;;;;;;;16.79;100.00;98286.47;1641436;85;20228;-87
2022/05/13 05:36:48;;;;;;;;;;;;;;;16.80;100.00;98286.30;1643467;87;20402;-86
2022/05/13 05:39:14;;;;;;;;;;;;;;;16.85;100.00;98281.91;1644244;87;20263;-87
2022/05/13 05:41:40;;;;;;;;;;;;;;;16.86;100.00;98291.47;1641138;87;26632;-87
2022/05/13 05:44:06;;;;;;;;;;;;;;;16.86;100.00;98290.15;1646186;87;20828;-87
2022/05/13 05:46:31;;;;;;;;;;;;;;;16.87;100.00;98282.56;1642726;87;20270;-87
2022/05/13 05:48:58;;;;;;;;;;;;;;;16.91;100.00;98282.62;1641621;87;24576;-86
2022/05/13 05:51:23;;;;;;;;;;;;;;;16.88;100.00;98275.81;1624544;87;20260;-87
2022/05/13 05:59:19;;;;;;;;;;;;;;;17.12;100.00;98291.92;1646768;87;20244;-83
2022/05/13 06:01:46;;;;;;;;;;;;;;;17.21;100.00;98280.91;1649085;87;20336;-83
2022/05/13 06:04:11;;;;;;;;;;;;;;;17.30;100.00;98285.27;1648510;87;22671;-83
2022/05/13 06:06:37;;;;;;;;;;;;;;;17.39;100.00;98288.83;1647391;87;20583;-83
2022/05/13 06:09:03;;;;;;;;;;;;;;;17.45;100.00;98293.52;1647397;87;20317;-83
2022/05/13 06:11:29;;;;;;;;;;;;;;;17.50;100.00;98288.10;1649601;87;20643;-83
2022/05/13 06:13:56;;;;;;;;;;;;;;;17.55;100.00;98287.63;1648287;87;20254;-83
2022/05/13 06:16:23;;;;;;;;;;;;;;;17.60;100.00;98285.87;1647347;87;22100;-83
2022/05/13 06:18:49;;;;;;;;;;;;;;;17.60;100.00;98284.55;1648227;87;26055;-86
2022/05/13 06:21:15;;;;;;;;;;;;;;;17.57;100.00;98294.41;1648278;87;24582;-86
2022/05/13 06:23:41;;;;;;;;;;;;;;;17.52;100.00;98288.76;1645415;87;20367;-87
2022/05/13 06:26:06;;;;;;;;;;;;;;;17.61;100.00;98295.48;1643004;87;20310;-86
2022/05/13 06:28:33;;;;;;;;;;;;;;;17.66;100.00;98294.03;1640271;87;20887;-83
2022/05/13 06:31:00;;;;;;;;;;;;;;;17.68;100.00;98294.69;1644482;87;26122;-82
2022/05/13 06:33:26;;;;;;;;;;;;;;;17.67;100.00;98297.02;1648346;86;20269;-83
2022/05/13 06:35:52;;;;;;;;;;;;;;;17.68;100.00;98296.50;1659908;86;20794;-83
2022/05/13 06:38:23;;;;;;;;;;;;;;;17.67;99.96;98293.54;1658285;86;24521;-83
2022/05/13 06:40:49;;;;;;;;;;;;;;;17.68;99.62;98301.30;1658176;86;22756;-83
2022/05/13 06:43:16;;;;;;;;;;;;;;;17.72;99.66;98297.39;1661919;86;26722;-83
2022/05/13 06:45:42;;;;;;;;;;;;;;;17.80;99.82;98292.62;1657687;86;24569;-83
2022/05/13 06:48:11;;;;;;;;;;;;;;;17.88;99.90;98285.58;1657377;86;20482;-87
2022/05/13 06:50:43;;;;;;;;;;;;;;;17.95;99.82;98278.64;1655974;86;20777;-82
2022/05/13 06:53:10;;;;;;;;;;;;;;;18.01;99.54;98282.97;1657893;86;22009;-83
2022/05/13 06:55:36;;;;;;;;;;;;;;;18.03;99.04;98282.33;1655552;86;25985;-83
2022/05/13 06:58:02;;;;;;;;;;;;;;;18.11;98.87;98283.19;1658323;86;20253;-82
2022/05/13 07:00:28;;;;;;;;;;;;;;;18.21;99.09;98272.50;1658295;86;20316;-82
2022/05/13 07:02:54;;;;;;;;;;;;;;;18.26;98.78;98273.68;1658160;86;20882;-82
2022/05/13 07:05:20;;;;;;;;;;;;;;;18.33;98.66;98276.01;1660480;86;22033;-82
2022/05/13 07:07:48;;;;;;;;;;;;;;;18.43;98.60;98272.42;1659765;86;25967;-82
2022/05/13 07:10:14;;;;;;;;;;;;;;;18.52;98.67;98274.09;1656312;85;24482;-82
2022/05/13 07:12:40;;;;;;;;;;;;;;;18.62;98.67;98278.80;1656041;86;20806;-82
2022/05/13 07:15:07;;;;;;;;;;;;;;;18.68;98.61;98274.17;1661066;86;24703;-82
2022/05/13 07:17:33;;;;;;;;;;;;;;;18.71;98.32;98272.54;1657698;86;21930;-83
2022/05/13 07:19:59;;;;;;;;;;;;;;;18.76;98.25;98259.09;1657306;84;25944;-83
2022/05/13 07:22:26;;;;;;;;;;;;;;;18.79;97.85;98261.94;1660511;86;24415;-84
2022/05/13 07:24:51;;;;;;;;;;;;;;;18.78;97.27;98255.80;1657481;85;20257;-84
2022/05/13 07:27:17;;;;;;;;;;;;;;;18.83;97.07;98253.98;1657704;86;20911;-84
2022/05/13 07:29:43;;;;;;;;;;;;;;;18.89;97.01;98246.70;1661010;86;20225;-87
2022/05/13 07:32:09;;;;;;;;;;;;;;;18.97;97.31;98244.07;1651521;85;21081;-88
2022/05/13 07:34:35;;;;;;;;;;;;;;;19.03;97.40;98243.42;1665303;85;20214;-83
2022/05/13 07:37:01;;;;;;;;;;;;;;;19.05;97.22;98250.69;1676031;85;20332;-83
2022/05/13 07:42:12;;;;;;;;;;;;;;;19.03;96.52;98263.81;1666231;85;22182;-83
2022/05/13 07:44:38;;;;;;;;;;;;;;;19.02;96.25;98264.80;1664935;85;26736;-83
2022/05/13 07:47:05;;;;;;;;;;;;;;;19.03;96.05;98266.45;1669669;84;20886;-84
2022/05/13 07:49:34;;;;;;;;;;;;;;;19.04;95.69;98264.11;1667263;85;20176;-84
2022/05/13 07:52:00;;;;;;;;;;;;;;;19.04;95.13;98262.78;1671525;85;24564;-84
2022/05/13 07:54:26;;;;;;;;;;;;;;;19.04;94.83;98258.31;1666760;85;20283;-84
2022/05/13 07:56:52;;;;;;;;;;;;;;;19.08;94.81;98246.41;1663382;85;26000;-83
2022/05/13 07:59:18;;;;;;;;;;;;;;;19.19;95.27;98250.55;1668806;85;24525;-84
2022/05/13 08:08:17;;;;;;;;;;;;;;;19.39;95.38;98270.94;1670659;85;22175;-87
2022/05/13 08:17:02;;;;;;;;;;;;;;;19.59;95.91;98266.47;1657356;85;20314;-87
2022/05/13 08:19:27;;;;;;;;;;;;;;;19.69;95.99;98261.49;1666647;85;24576;-87
2022/05/13 08:21:53;;;;;;;;;;;;;;;19.78;96.28;98259.14;1667431;84;20185;-82
2022/05/13 08:24:19;;;;;;;;;;;;;;;19.85;96.22;98266.27;1666367;85;21036;-87
2022/05/13 08:26:45;;;;;;;;;;;;;;;19.85;95.96;98262.78;1674503;85;20224;-86
2022/05/13 08:29:10;;;;;;;;;;;;;;;19.89;96.12;98267.59;1669268;84;20241;-87
2022/05/13 08:31:39;;;;;;;;;;;;;;;19.98;96.24;98268.38;1666710;85;20362;-87
2022/05/13 08:34:07;;;;;;;;;;;;;;;20.01;96.18;98267.56;1665249;85;21992;-83
2022/05/13 08:36:34;;;;;;;;;;;;;;;20.10;96.46;98266.19;1663349;85;26593;-83
2022/05/13 08:39:00;;;;;;;;;;;;;;;20.15;96.68;98274.47;1663367;86;25055;-83
2022/05/13 08:41:30;;;;;;;;;;;;;;;20.21;96.82;98269.80;1663481;85;20284;-84
2022/05/13 08:44:07;;;;;;;;;;;;;;;20.32;97.16;98272.95;1629119;86;24772;-84
2022/05/13 08:46:39;;;;;;;;;;;;;;;20.39;97.32;98269.94;1663005;86;22017;-87
2022/05/13 08:49:10;;;;;;;;;;;;;;;20.51;97.47;98272.22;1631839;87;26035;-83
2022/05/13 08:51:55;;;;;;;;;;;;;;;20.64;97.69;98267.14;1648188;85;24539;-83
2022/05/13 08:54:23;;;;;;;;;;;;;;;20.79;97.92;98266.22;1666622;85;20238;-84
2022/05/13 08:56:57;;;;;;;;;;;;;;;20.97;98.39;98261.13;1666168;86;24627;-84
2022/05/13 08:59:25;;;;;;;;;;;;;;;21.06;98.21;98260.05;1638844;86;23756;-84
2022/05/13 09:01:55;;;;;;;;;;;;;;;21.10;98.02;98261.38;1666385;86;25986;-84
2022/05/13 09:04:29;;;;;;;;;;;;;;;21.12;97.78;98264.67;1662762;85;24645;-84
2022/05/13 09:06:57;;;;;;;;;;;;;;;21.13;97.35;98261.01;1664372;86;20332;-83
2022/05/13 09:09:22;;;;;;;;;;;;;;;21.22;97.06;98258.66;1664896;86;24646;-83
2022/05/13 09:12:07;;;;;;;;;;;;;;;21.33;96.93;98258.73;1666366;85;20556;-85
2022/05/13 09:14:47;;;;;;;;;;;;;;;21.40;96.62;98263.15;1659666;86;199939;-85
2022/05/13 09:17:14;;;;;;;;;;;;;;;21.44;96.19;98251.66;1621725;86;24537;-84
2022/05/13 09:20:02;;;;;;;;;;;;;;;21.49;95.77;98245.28;1665207;86;20190;-84
2022/05/13 09:22:37;;;;;;;;;;;;;;;21.60;95.87;98239.52;1662548;85;24559;-85
2022/05/13 09:25:04;;;;;;;;;;;;;;;21.69;95.72;98237.09;1666095;85;22065;-85
2022/05/13 09:27:32;;;;;;;;;;;;;;;21.80;95.67;98235.81;1663263;85;26093;-85
2022/05/13 09:29:58;;;;;;;;;;;;;;;21.87;95.25;98231.41;1664181;86;24531;-85
2022/05/13 09:32:30;;;;;;;;;;;;;;;22.00;95.03;98225.78;1663290;86;20280;-85
2022/05/13 09:35:05;;;;;;;;;;;;;;;22.11;94.45;98226.65;1668257;85;24708;-85
2022/05/13 09:37:31;;;;;;;;;;;;;;;22.20;93.69;98230.56;1666629;84;22203;-85
2022/05/13 09:40:05;;;;;;;;;;;;;;;22.19;92.28;98232.40;1666861;84;26224;-84
2022/05/13 09:42:40;;;;;;;;;;;;;;;22.17;91.04;98226.91;1679306;85;24548;-84
2022/05/13 09:45:12;;;;;;;;;;;;;;;22.18;90.05;98228.07;1679758;84;20529;-88
2022/05/13 09:47:38;;;;;;;;;;;;;;;22.26;89.98;98221.29;1653494;86;24571;-84
2022/05/13 09:50:08;;;;;;;;;;;;;;;22.31;89.65;98214.09;1649614;86;21006;-84
2022/05/13 09:52:35;;;;;;;;;;;;;;;22.33;89.33;98208.05;1655183;86;26724;-84
2022/05/13 09:55:05;;;;;;;;;;;;;;;22.38;88.98;98204.31;1656118;86;24426;-84
2022/05/13 09:57:32;;;;;;;;;;;;;;;22.43;88.84;98204.06;1642704;85;20219;-84
2022/05/13 10:00:06;;;;;;;;;;;;;;;22.54;88.89;98211.58;1655695;85;25195;-84
2022/05/13 10:02:34;;;;;;;;;;;;;;;22.58;88.25;98208.05;1649952;86;22076;-88
2022/05/13 10:05:19;;;;;;;;;;;;;;;22.55;87.25;98199.08;1652509;85;25956;-85
2022/05/13 10:07:55;;;;;;;;;;;;;;;22.53;86.50;98196.59;1655158;86;24454;-84
2022/05/13 10:16:00;;;;;;;;;;;;;;;22.83;86.19;98182.68;1647141;86;22033;-84
2022/05/13 10:18:30;;;;;;;;;;;;;;;22.85;84.96;98174.49;1646259;86;26923;-84
2022/05/13 10:21:06;;;;;;;;;;;;;;;22.83;83.55;98177.84;1641979;86;25340;-84
2022/05/13 10:23:46;;;;;;;;;;;;;;;22.83;82.62;98167.17;1654702;86;20257;-84
2022/05/13 10:26:14;;;;;;;;;;;;;;;22.87;82.01;98165.77;1652549;86;25205;-84
2022/05/13 10:28:42;;;;;;;;;;;;;;;22.97;82.32;98160.09;1651758;86;22188;-84
2022/05/13 10:31:13;;;;;;;;;;;;;;;23.04;82.04;98163.66;1644991;86;26139;-84
2022/05/13 10:33:42;;;;;;;;;;;;;;;23.03;80.99;98156.66;1651156;86;24934;-85
2022/05/13 10:36:10;;;;;;;;;;;;;;;22.94;79.64;98155.98;1666514;84;20534;-84
2022/05/13 10:38:37;;;;;;;;;;;;;;;22.82;78.67;98154.34;1675780;85;24711;-84
2022/05/13 10:41:05;;;;;;;;;;;;;;;22.75;78.07;98154.77;1685377;84;21966;-84
2022/05/13 10:43:33;;;;;;;;;;;;;;;22.83;78.72;98155.16;1676106;85;26620;-83
2022/05/13 10:46:01;;;;;;;;;;;;;;;22.90;78.53;98154.73;1676299;83;24535;-84
2022/05/13 10:48:29;;;;;;;;;;;;;;;22.91;77.96;98150.51;1662582;84;34086;-84
2022/05/13 10:51:13;;;;;;;;;;;;;;;22.92;76.86;98152.67;1693879;84;24553;-84
2022/05/13 10:53:58;;;;;;;;;;;;;;;22.97;76.17;98144.08;1667611;86;22023;-84
2022/05/13 10:56:25;;;;;;;;;;;;;;;23.05;76.31;98135.45;1658153;84;26171;-84
2022/05/13 10:58:56;;;;;;;;;;;;;;;23.12;75.92;98130.16;1689182;84;24530;-84
2022/05/13 11:01:40;;;;;;;;;;;;;;;23.20;75.56;98128.67;1662462;86;20241;-84
2022/05/13 11:04:21;;;;;;;;;;;;;;;23.24;74.73;98124.58;1668379;86;25213;-88
2022/05/13 11:06:57;;;;;;;;;;;;;;;23.29;74.01;98130.19;1676412;84;22143;-87
2022/05/13 11:09:38;;;;;;;;;;;;;;;23.49;74.05;98123.66;1687798;84;26066;-88
2022/05/13 11:12:10;;;;;;;;;;;;;;;23.61;72.99;98121.59;1679116;84;25193;-88
2022/05/13 11:14:44;;;;;;;;;;;;;;;23.73;71.94;98109.30;1686009;84;20234;-85
2022/05/13 11:17:24;;;;;;;;;;;;;;;23.77;70.49;98109.74;1680626;84;24543;-85
2022/05/13 11:20:01;;;;;;;;;;;;;;;23.83;68.48;98118.81;1687777;84;22164;-84
2022/05/13 11:22:29;;;;;;;;;;;;;;;23.95;68.01;98114.02;1679389;84;26239;-84
2022/05/13 11:27:58;;;;;;;;;;;;;;;24.03;66.67;98105.02;1685403;84;20273;-88
2022/05/13 11:30:28;;;;;;;;;;;;;;;24.17;66.82;98106.21;1684156;84;25417;-88
2022/05/13 11:32:59;;;;;;;;;;;;;;;24.24;66.41;98102.22;1690007;84;22210;-84
2022/05/13 11:35:42;;;;;;;;;;;;;;;24.24;65.19;98096.05;1668547;84;26064;-84
2022/05/13 11:38:21;;;;;;;;;;;;;;;24.09;62.83;98094.86;1658962;86;25250;-84
2022/05/13 11:40:52;;;;;;;;;;;;;;;24.06;61.98;98095.23;1655171;86;20622;-84
2022/05/13 11:43:20;;;;;;;;;;;;;;;24.03;61.42;98099.16;1657751;85;24603;-84
2022/05/13 11:46:03;;;;;;;;;;;;;;;23.95;61.10;98093.14;1661607;85;22077;-84
2022/05/13 11:48:33;;;;;;;;;;;;;;;23.97;61.06;98083.08;1659284;86;26059;-84
2022/05/13 11:51:08;;;;;;;;;;;;;;;24.02;61.26;98079.30;1659879;85;24523;-85
2022/05/13 11:53:51;;;;;;;;;;;;;;;23.93;60.33;98084.52;1655686;85;20259;-85
2022/05/13 11:56:18;;;;;;;;;;;;;;;23.86;59.97;98079.65;1658797;85;24725;-87
2022/05/13 11:58:49;;;;;;;;;;;;;;;23.70;59.52;98074.97;1651419;86;22268;-85
2022/05/13 12:01:34;;;;;;;;;;;;;;;23.66;59.80;98076.91;1663030;85;26059;-85
2022/05/13 12:04:19;;;;;;;;;;;;;;;23.58;59.31;98071.20;1655951;84;25361;-85
2022/05/13 12:06:55;;;;;;;;;;;;;;;23.62;59.05;98067.64;1655929;86;20282;-85
2022/05/13 12:09:26;;;;;;;;;;;;;;;23.72;59.33;98055.56;1657551;86;24854;-85
2022/05/13 12:12:11;;;;;;;;;;;;;;;23.92;59.60;98056.13;1654797;86;21923;-87
2022/05/13 12:14:39;;;;;;;;;;;;;;;23.99;58.68;98035.59;1653358;86;26050;-85
2022/05/13 12:17:18;;;;;;;;;;;;;;;23.99;57.68;98012.37;1659483;85;24420;-85
2022/05/13 12:20:03;;;;;;;;;;;;;;;23.98;57.45;98001.86;1652506;85;20233;-87
2022/05/13 12:22:34;;;;;;;;;;;;;;;23.96;56.87;98002.57;1655453;86;24661;-85
2022/05/13 12:25:02;;;;;;;;;;;;;;;23.99;56.52;97996.84;1655415;85;22267;-88
2022/05/13 12:27:32;;;;;;;;;;;;;;;23.96;56.28;98006.07;1655666;86;25978;-84
2022/05/13 12:30:00;;;;;;;;;;;;;;;23.91;56.01;98007.19;1657876;86;24482;-87
2022/05/13 12:32:40;;;;;;;;;;;;;;;23.93;55.89;97998.47;1658244;86;20548;-84
2022/05/13 12:38:02;;;;;;;;;;;;;;;24.10;55.71;97998.41;1655193;86;22875;-84
2022/05/13 12:40:36;;;;;;;;;;;;;;;24.23;55.97;98008.30;1664112;85;26618;-83
2022/05/13 12:43:19;;;;;;;;;;;;;;;24.31;56.20;98004.11;1621628;86;24474;-84
2022/05/13 12:46:09;;;;;;;;;;;;;;;24.39;55.99;97999.88;1649939;86;20218;-83
2022/05/13 12:48:35;;;;;;;1.72;1.40;;;;;;;24.49;55.79;98002.17;1654423;85;24734;-83
2022/05/13 12:51:17;;;;;;;1.37;1.15;;;;;;;24.36;54.77;98005.66;1650789;86;28087;-84
2022/05/13 12:53:51;;;;;;;2.87;1.20;;;;;;;24.33;54.60;98001.23;1650234;85;28125;-84
2022/05/13 12:56:31;;;;;;;3.20;1.35;;;;;;;24.34;54.31;98007.70;1648492;84;28088;-85
2022/05/13 12:59:04;;;;;;;2.67;1.50;;;;;;;24.41;54.35;97997.84;1653196;85;28094;-84
2022/05/13 13:01:32;;;;;;;2.65;1.60;;;;;;;24.40;54.15;98003.39;1649242;86;28184;-83
2022/05/13 13:04:01;;;;;;;3.65;1.60;;;;;;;24.28;53.65;98006.35;1649709;86;28012;-82
2022/05/13 13:06:40;;;;;;;2.47;1.50;;;;;;;24.15;53.51;97997.28;1666081;85;28109;-86
2022/05/13 13:09:10;;;;;;;4.65;1.50;;;;;;;24.11;53.52;98011.27;1654779;85;28012;-83
2022/05/13 13:11:39;;;;;;;1.62;1.40;;;;;;;24.07;53.61;98010.83;1650777;86;20227;-84
2022/05/13 13:14:27;;;;;;;2.37;1.60;;;;;;;24.17;54.00;97998.39;1648598;85;28046;-85
2022/05/13 13:16:58;;;;;;;;;;;;;;;24.36;54.63;97996.30;1653014;85;28131;-86
2022/05/13 13:19:26;;;;;;;2.60;1.60;;;;;;;24.51;54.89;97994.23;1649678;86;27348;-85
2022/05/13 13:22:01;;;;;;;2.30;1.70;;;;;;;24.67;55.20;97988.97;1658985;85;28066;-86
2022/05/13 13:24:38;;;;;;;;;;;;;;;24.83;55.61;97979.69;1653197;85;20591;-85
2022/05/13 13:27:06;;;;;;;3.62;1.62;;;;;;;24.91;55.31;97985.69;1647108;86;24621;-87
2022/05/13 13:29:36;;;;;;;17.85;5.97;;;;;;;24.80;54.78;97988.97;1650569;85;28087;-87
2022/05/13 13:32:07;;;;;;;9.78;4.05;;;;;;;24.57;54.39;97988.06;1652489;86;28172;-87
2022/05/13 13:34:35;;;;;;;;;;;;;;;24.43;54.37;97986.43;1656735;85;28055;-87
2022/05/13 13:37:02;;;;;;;;;;;;;;;24.21;53.87;97984.97;1677666;83;20279;-87
2022/05/13 13:39:29;;;;;;;;;;;;;;;24.33;54.21;97972.61;1678604;83;24611;-87
2022/05/13 13:42:03;;;;;;;;;;;;;;;24.66;54.40;97966.45;1689507;84;22066;-85